Seattle, WA (98148)

4:33 PM PDT on July 21, 2017 (GMT -0700)
Normandy Park, WA | | Change Station

Elev 351 ft 47.44 °N, 122.34 °W | Updated 24 seconds ago

Mostly Cloudy
Mostly Cloudy
77.5 °F
Feels Like 79 °F
N
1.0
Wind Variable Wind from West

Today
High -- | Low -- °F
--% Chance of Precip.
Yesterday
High -- | Low -- °F
Precip. -- in
Pressure 30.15 in
Visibility 10.0 miles
Clouds Few 4000 ft
Scattered Clouds 9500 ft
Mostly Cloudy 18000 ft
Heat Index 79 °F
Dew Point 54 °F
Humidity 45%
Rainfall 0.00 in
Snow Depth Not available.
5:34 AM 8:56 PM
Waning Crescent, 3% visible
METAR KSEA 212253Z 24007KT 10SM FEW040 SCT095 BKN180 25/11 A3013 RMK AO2 SLP208 T02500111
Pressure 30.15 in
Visibility 10.0 miles
Clouds Few 4000 ft
Scattered Clouds 9500 ft
Mostly Cloudy 18000 ft
Heat Index 79 °F
Dew Point 54 °F
Humidity 45%
Rainfall 0.00 in
Snow Depth Not available.
5:34 AM 8:56 PM
Waning Crescent, 3% visible
METAR KSEA 212253Z 24007KT 10SM FEW040 SCT095 BKN180 25/11 A3013 RMK AO2 SLP208 T02500111

Get Severe Weather Alerts

Thanks for signing up!

Be on the lookout for a verification email in your inbox.

You'll start receiving the daily forecast at 6 AM.

×

10-Day Weather Forecast

Almanac

Astronomy

Jul. 21, 2017 Rise Set
Actual Time
Civil Twilight
Nautical Twilight
Astronomical Twilight
Moon
Length of Visible Light
Length of Day
Tomorrow will be .
, % of the Moon is Illuminated

Today's Extremes

State Highs State Lows

Community

WunderPhotos

Category 6

Welcome to Category 6. This is the collective home for Weather Underground's featured writeups by Dr. Jeff Masters (right), Bob Henson (left), Chris Burt, and other regular contributors.

Nearby

Air Quality

  Air Quality AQ Index Pollutant
Not available.

Snow Depth

Station Depth Elevation

Earthquake Activity

City Distance Mag. Time & Date
Minimum magnitude displayed is 2.5.

Coastal Water Temperatures

Place Temperature

Stations

Nearby Weather Stations

Station Location Temp. Windchill Dew Point Humidity Wind Precip. Elev Updated Type
                   

Watches & Warnings

There are currently no watches in effect.